Time;durP1;ratioP1;P1;durP2;ratioP2;P2;SDS_P1;SDS_P2;PMS_P1;PMS_P2;Temp;Humidity;BMP_temperature;BMP_pressure;BME280_temperature;BME280_humidity;BME280_pressure;Samples;Min_cycle;Max_cycle;Signal;HPM_P1;HPM_P2
2021/12/07 00:02:01;;;;;;;36.47;22.48;;;2.90;81.40;;;-151.14;100.00;62537.16;4131071;34;20148;-89
2021/12/07 00:04:28;;;;;;;34.45;22.92;;;2.90;81.30;;;-151.14;100.00;62537.16;4135110;34;20007;-88
2021/12/07 00:06:55;;;;;;;35.85;22.98;;;2.90;81.30;;;-151.14;100.00;62537.16;4134883;34;20076;-88
2021/12/07 00:09:22;;;;;;;36.35;23.67;;;2.90;81.30;;;-151.14;100.00;62537.16;4135230;34;20030;-88
2021/12/07 00:11:49;;;;;;;38.25;23.30;;;2.90;81.30;;;-151.14;100.00;62537.16;4113822;34;20006;-88
2021/12/07 00:14:24;;;;;;;33.90;22.25;;;2.90;81.30;;;-151.14;100.00;62537.16;4136200;34;20043;-88
2021/12/07 00:16:54;;;;;;;34.30;22.13;;;2.90;81.40;;;-151.14;100.00;62537.16;4139221;34;20063;-89
2021/12/07 00:19:21;;;;;;;36.03;22.85;;;2.90;81.30;;;-151.14;100.00;62537.16;4113843;34;19998;-88
2021/12/07 00:21:47;;;;;;;35.17;22.10;;;2.90;81.20;;;-151.14;100.00;62537.16;4146527;34;20140;-89
2021/12/07 00:24:14;;;;;;;34.97;21.55;;;2.90;81.30;;;-151.14;100.00;62537.16;4180076;33;20060;-90
2021/12/07 00:26:42;;;;;;;34.58;22.10;;;2.90;81.30;;;-151.14;100.00;62537.16;4134218;34;20011;-89
2021/12/07 00:29:10;;;;;;;37.63;22.75;;;2.90;81.20;;;-151.14;100.00;62537.16;4135185;34;19996;-89
2021/12/07 00:31:46;;;;;;;35.30;21.92;;;2.90;81.20;;;-151.14;100.00;62537.16;4125488;34;20157;-89
2021/12/07 00:34:27;;;;;;;36.38;22.40;;;2.90;81.20;;;-151.14;100.00;62537.16;4098499;34;20309;-89
2021/12/07 00:36:54;;;;;;;38.42;21.42;;;2.90;81.20;;;-151.14;100.00;62537.16;4105518;34;20090;-88
2021/12/07 00:39:23;;;;;;;36.00;21.33;;;2.90;81.20;;;-151.14;100.00;62537.16;4064294;34;20012;-88
2021/12/07 00:41:53;;;;;;;35.08;20.90;;;2.90;81.30;;;-151.14;100.00;62537.16;4086823;34;20016;-89
2021/12/07 00:44:21;;;;;;;32.03;21.15;;;2.90;81.20;;;-151.14;100.00;62537.16;4065795;34;20327;-91
2021/12/07 00:46:48;;;;;;;33.20;21.00;;;2.90;81.20;;;-151.14;100.00;62537.16;4075901;34;19992;-89
2021/12/07 00:49:15;;;;;;;34.25;20.85;;;3.00;81.20;;;-151.14;100.00;62537.16;4135100;34;19983;-90
2021/12/07 00:51:42;;;;;;;32.30;20.20;;;3.00;81.30;;;-151.14;100.00;62537.16;4157745;34;19984;-88
2021/12/07 00:54:10;;;;;;;34.50;20.98;;;2.90;81.20;;;-151.14;100.00;62537.16;4157360;34;20261;-89
2021/12/07 00:56:37;;;;;;;35.78;22.48;;;2.90;81.30;;;-151.14;100.00;62537.16;4156672;34;20310;-90
2021/12/07 00:59:04;;;;;;;32.33;20.67;;;3.00;81.30;;;-151.14;100.00;62537.16;4156064;34;19992;-89
2021/12/07 01:01:30;;;;;;;31.75;19.80;;;3.00;81.20;;;-151.14;100.00;62537.16;4135279;34;20053;-90
2021/12/07 01:03:58;;;;;;;34.78;20.40;;;2.90;81.20;;;-151.14;100.00;62537.16;4112380;34;20027;-90
2021/12/07 01:06:43;;;;;;;34.88;21.27;;;3.00;81.30;;;-151.14;100.00;62537.16;4129721;34;20416;-89
2021/12/07 01:09:27;;;;;;;30.88;20.13;;;3.00;81.20;;;-151.14;100.00;62537.16;4120354;34;20019;-90
2021/12/07 01:26:23;;;;;;;32.28;18.38;;;3.00;81.20;;;-151.14;100.00;62537.16;4122230;34;20004;-91
2021/12/07 01:28:49;;;;;;;29.95;18.60;;;3.00;81.20;;;-151.14;100.00;62537.16;4047976;34;20034;-88
2021/12/07 01:31:23;;;;;;;28.60;17.20;;;3.00;81.20;;;-151.14;100.00;62537.16;4013506;34;20127;-89
2021/12/07 01:59:54;;;;;;;29.27;17.00;;;3.00;81.20;;;-151.14;100.00;62537.16;4067018;34;20080;-91
2021/12/07 02:02:24;;;;;;;26.92;16.77;;;3.00;81.20;;;-151.14;100.00;62537.16;4084687;34;20083;-91
2021/12/07 02:04:52;;;;;;;23.63;15.43;;;3.00;81.20;;;-151.14;100.00;62537.16;4064920;34;20390;-89
2021/12/07 02:07:27;;;;;;;24.67;16.52;;;3.00;81.20;;;-151.14;100.00;62537.16;4066490;34;20085;-90
2021/12/07 02:09:57;;;;;;;23.40;14.75;;;3.00;81.20;;;-151.14;100.00;62537.16;4086726;34;20220;-92
2021/12/07 02:12:29;;;;;;;24.65;15.48;;;3.00;81.20;;;-151.14;100.00;62537.16;4065565;34;20016;-91
2021/12/07 02:14:55;;;;;;;24.38;15.55;;;3.00;81.20;;;-151.14;100.00;62537.16;4081725;34;20151;-91
2021/12/07 02:17:25;;;;;;;23.83;15.30;;;3.00;81.10;;;-151.14;100.00;62537.16;4058848;34;20289;-91
2021/12/07 02:19:53;;;;;;;26.83;15.23;;;3.00;81.20;;;-151.14;100.00;62537.16;4061036;34;20010;-91
2021/12/07 02:22:20;;;;;;;23.50;14.70;;;3.00;81.20;;;-151.14;100.00;62537.16;4039098;34;20072;-91
2021/12/07 02:24:51;;;;;;;21.05;13.57;;;3.00;81.20;;;-151.14;100.00;62537.16;4035233;34;20289;-90
2021/12/07 02:27:18;;;;;;;24.90;15.65;;;3.00;81.20;;;-151.14;100.00;62537.16;4076027;34;20065;-89
2021/12/07 02:29:44;;;;;;;23.35;14.73;;;3.00;81.10;;;-151.14;100.00;62537.16;4077435;34;19990;-89
2021/12/07 02:32:11;;;;;;;21.85;13.93;;;3.00;81.10;;;-151.14;100.00;62537.16;4056177;34;20001;-90
2021/12/07 02:34:44;;;;;;;22.30;13.40;;;3.00;81.20;;;-151.14;100.00;62537.16;4083264;34;20086;-90
2021/12/07 02:37:12;;;;;;;22.90;14.57;;;3.00;81.20;;;-151.14;100.00;62537.16;4088488;34;20001;-90
2021/12/07 02:39:44;;;;;;;21.40;13.80;;;3.00;81.20;;;-151.14;100.00;62537.16;4060754;34;20057;-91
2021/12/07 02:42:11;;;;;;;21.75;14.02;;;3.00;81.20;;;-151.14;100.00;62537.16;4084347;34;20395;-90
2021/12/07 02:44:37;;;;;;;21.02;13.13;;;3.00;81.10;;;-151.14;100.00;62537.16;4083453;34;20220;-91
2021/12/07 02:47:10;;;;;;;22.27;13.57;;;3.00;81.20;;;-151.14;100.00;62537.16;4083972;34;20002;-91
2021/12/07 02:49:36;;;;;;;21.15;13.23;;;3.00;81.20;;;-151.14;100.00;62537.16;4061908;34;19998;-91
2021/12/07 02:52:04;;;;;;;20.65;12.80;;;3.00;81.10;;;-151.14;100.00;62537.16;4062858;34;19993;-91
2021/12/07 02:54:36;;;;;;;22.33;13.00;;;3.00;81.10;;;-151.14;100.00;62537.16;4085531;34;20077;-91
2021/12/07 02:57:06;;;;;;;21.85;13.43;;;3.00;81.20;;;-151.14;100.00;62537.16;4085760;34;20356;-89
2021/12/07 02:59:34;;;;;;;18.98;12.70;;;3.00;81.10;;;-151.14;100.00;62537.16;4065880;34;20012;-89
2021/12/07 03:02:05;;;;;;;23.08;14.40;;;3.00;81.10;;;-151.14;100.00;62537.16;4086371;34;19996;-90
2021/12/07 03:04:42;;;;;;;20.90;13.50;;;3.00;81.20;;;-151.14;100.00;62537.16;4086740;34;19998;-91
2021/12/07 03:25:56;;;;;;;20.80;12.50;;;3.00;81.10;;;-151.14;100.00;62537.16;4066679;34;20094;-91
2021/12/07 03:26:09;;;;;;;17.48;11.20;;;3.00;81.10;;;-151.14;100.00;62537.16;4055349;34;20335;-89
2021/12/07 03:28:48;;;;;;;19.05;11.88;;;3.00;81.20;;;-151.14;100.00;62537.16;4061059;34;19997;-91
2021/12/07 03:31:19;;;;;;;18.55;11.60;;;3.00;81.20;;;-151.14;100.00;62537.16;4040556;34;19993;-90
2021/12/07 03:33:48;;;;;;;20.58;12.60;;;3.00;81.20;;;-151.14;100.00;62537.16;4039211;34;20029;-91
2021/12/07 03:36:18;;;;;;;18.95;12.13;;;3.00;81.10;;;-151.14;100.00;62537.16;4059668;34;20154;-92
2021/12/07 03:38:46;;;;;;;18.63;11.93;;;2.90;81.10;;;-151.14;100.00;62537.16;4102546;34;20045;-90
2021/12/07 03:41:14;;;;;;;19.85;11.68;;;3.00;81.10;;;-151.14;100.00;62537.16;4060502;34;20069;-90
2021/12/07 03:43:41;;;;;;;16.23;10.88;;;3.00;81.10;;;-151.14;100.00;62537.16;4038887;34;20044;-90
2021/12/07 03:46:08;;;;;;;18.38;11.00;;;3.00;81.10;;;-151.14;100.00;62537.16;4058268;34;19994;-89
2021/12/07 03:48:34;;;;;;;16.73;10.68;;;3.00;81.10;;;-151.14;100.00;62537.16;4059155;34;20090;-92
2021/12/07 03:51:01;;;;;;;17.30;10.77;;;3.00;81.10;;;-151.14;100.00;62537.16;4059659;34;19996;-92
2021/12/07 03:53:29;;;;;;;16.95;10.88;;;3.00;81.10;;;-151.14;100.00;62537.16;4060532;34;20024;-92
2021/12/07 03:55:57;;;;;;;17.40;11.18;;;3.00;81.10;;;-151.14;100.00;62537.16;4059617;34;20111;-92
2021/12/07 03:58:24;;;;;;;16.25;10.25;;;3.00;81.10;;;-151.14;100.00;62537.16;4059399;34;20053;-91
2021/12/07 04:00:51;;;;;;;16.95;10.88;;;3.00;81.00;;;-151.14;100.00;62537.16;4038786;34;19985;-91
2021/12/07 04:03:18;;;;;;;15.80;9.32;;;3.00;81.00;;;-151.14;100.00;62537.16;4059733;34;19993;-91
2021/12/07 04:05:49;;;;;;;19.60;11.63;;;3.00;81.10;;;-151.14;100.00;62537.16;4081300;34;20118;-90
2021/12/07 04:08:25;;;;;;;16.60;10.45;;;3.00;81.10;;;-151.14;100.00;62537.16;4040874;34;19993;-91
2021/12/07 04:10:54;;;;;;;14.77;10.40;;;3.00;81.00;;;-151.14;100.00;62537.16;4049214;34;19990;-90
2021/12/07 04:13:21;;;;;;;16.42;10.27;;;3.00;81.10;;;-151.14;100.00;62537.16;4034084;34;20062;-92
2021/12/07 04:15:48;;;;;;;16.15;10.52;;;3.00;81.00;;;-151.14;100.00;62537.16;4037712;34;20013;-92
2021/12/07 04:18:14;;;;;;;15.23;9.88;;;3.00;81.10;;;-151.14;100.00;62537.16;4034020;34;20009;-92
2021/12/07 04:20:41;;;;;;;15.45;9.85;;;3.00;81.10;;;-151.14;100.00;62537.16;4034504;34;19997;-92
2021/12/07 04:23:08;;;;;;;15.98;10.15;;;3.00;81.10;;;-151.14;100.00;62537.16;4033939;34;19993;-92
2021/12/07 04:25:35;;;;;;;15.07;9.68;;;3.00;81.10;;;-151.14;100.00;62537.16;4055526;34;19986;-91
2021/12/07 04:28:02;;;;;;;16.88;10.20;;;3.00;81.10;;;-151.14;100.00;62537.16;4054713;34;20088;-91
2021/12/07 04:30:34;;;;;;;17.52;10.88;;;3.00;81.10;;;-151.14;100.00;62537.16;4034821;34;19986;-92
2021/12/07 04:33:01;;;;;;;16.10;10.07;;;3.00;81.10;;;-151.14;100.00;62537.16;4034627;34;20105;-92
2021/12/07 04:35:28;;;;;;;15.60;9.82;;;3.00;81.10;;;-151.14;100.00;62537.16;4061493;34;19985;-93
2021/12/07 04:37:55;;;;;;;16.27;10.18;;;3.00;81.10;;;-151.14;100.00;62537.16;4085273;34;20000;-90
2021/12/07 04:40:26;;;;;;;17.42;10.80;;;3.00;81.20;;;-151.14;100.00;62537.16;4086360;34;20169;-93
2021/12/07 04:42:53;;;;;;;16.75;9.80;;;3.00;81.10;;;-151.14;100.00;62537.16;4065193;34;20000;-93
2021/12/07 04:46:10;;;;;;;15.75;10.13;;;3.00;81.10;;;-151.14;100.00;62537.16;4085830;34;20315;-92
2021/12/07 04:59:08;;;;;;;17.40;10.60;;;3.00;81.10;;;-151.14;100.00;62537.16;4067752;34;20063;-90
2021/12/07 05:01:35;;;;;;;15.18;9.32;;;3.00;81.00;;;-151.14;100.00;62537.16;4061016;34;20034;-90
2021/12/07 05:04:08;;;;;;;14.75;9.10;;;3.00;81.10;;;-151.14;100.00;62537.16;4060583;34;19996;-90
2021/12/07 05:06:40;;;;;;;15.40;9.55;;;3.00;81.10;;;-151.14;100.00;62537.16;4063246;34;19994;-90
2021/12/07 05:09:29;;;;;;;14.02;9.50;;;3.00;81.10;;;-151.14;100.00;62537.16;4063186;34;20032;-91
2021/12/07 05:14:35;;;;;;;15.13;9.18;;;3.00;81.10;;;-151.14;100.00;62537.16;4064082;34;20065;-92
2021/12/07 05:38:30;;;;;;;13.70;9.07;;;3.00;81.10;;;-151.14;100.00;62537.16;4066616;34;20069;-92
2021/12/07 05:40:57;;;;;;;12.10;7.95;;;3.00;81.10;;;-151.14;100.00;62537.16;4060380;34;20021;-91
2021/12/07 05:43:23;;;;;;;12.95;8.10;;;3.00;81.10;;;-151.14;100.00;62537.16;4039110;34;20077;-91
2021/12/07 05:45:49;;;;;;;11.85;7.60;;;3.00;81.10;;;-151.14;100.00;62537.16;4060488;34;20119;-92
2021/12/07 05:48:16;;;;;;;12.30;7.53;;;3.00;81.00;;;-151.14;100.00;62537.16;4038490;34;20099;-90
2021/12/07 05:50:43;;;;;;;12.82;8.25;;;3.00;81.00;;;-151.14;100.00;62537.16;4061042;34;20068;-91
2021/12/07 05:53:11;;;;;;;13.20;8.63;;;3.00;81.10;;;-151.14;100.00;62537.16;4060023;34;20308;-91
2021/12/07 05:55:38;;;;;;;12.35;8.13;;;3.00;81.00;;;-151.14;100.00;62537.16;4039246;34;19989;-91
2021/12/07 05:58:04;;;;;;;12.20;8.00;;;3.00;81.00;;;-151.14;100.00;62537.16;4059955;34;20378;-91
2021/12/07 06:00:32;;;;;;;12.95;7.88;;;3.00;81.10;;;-151.14;100.00;62537.16;4060017;34;20220;-92
2021/12/07 06:03:09;;;;;;;12.02;8.43;;;3.00;81.00;;;-151.14;100.00;62537.16;4038463;34;20351;-91
2021/12/07 06:05:37;;;;;;;10.98;6.80;;;3.00;81.10;;;-151.14;100.00;62537.16;4060837;34;19993;-92
2021/12/07 06:08:04;;;;;;;12.15;7.68;;;3.00;81.10;;;-151.14;100.00;62537.16;4039269;34;20069;-91
2021/12/07 06:10:31;;;;;;;11.50;7.28;;;3.00;81.10;;;-151.14;100.00;62537.16;4039766;34;20272;-92
2021/12/07 06:12:58;;;;;;;11.98;7.43;;;3.00;81.10;;;-151.14;100.00;62537.16;4045031;34;19990;-90
2021/12/07 06:15:27;;;;;;;12.10;7.40;;;3.00;81.10;;;-151.14;100.00;62537.16;4066593;34;20041;-90
2021/12/07 06:17:53;;;;;;;12.20;7.57;;;3.00;81.00;;;-151.14;100.00;62537.16;4067411;34;19992;-92
2021/12/07 06:20:21;;;;;;;10.82;6.72;;;3.00;81.10;;;-151.14;100.00;62537.16;4044474;34;20009;-91
2021/12/07 06:22:47;;;;;;;10.90;7.22;;;3.00;81.10;;;-151.14;100.00;62537.16;4039049;34;19985;-91
2021/12/07 06:25:14;;;;;;;10.85;7.50;;;3.00;81.00;;;-151.14;100.00;62537.16;4059472;34;20000;-92
2021/12/07 06:27:41;;;;;;;9.77;6.20;;;3.00;81.10;;;-151.14;100.00;62537.16;4038187;34;19997;-91
2021/12/07 06:30:10;;;;;;;11.98;7.93;;;3.00;81.00;;;-151.14;100.00;62537.16;4059703;34;19993;-91
2021/12/07 06:32:36;;;;;;;13.50;7.30;;;3.00;81.00;;;-151.14;100.00;62537.16;4059522;34;20080;-92
2021/12/07 06:35:04;;;;;;;10.48;6.82;;;3.00;81.00;;;-151.14;100.00;62537.16;4059210;34;20060;-90
2021/12/07 06:37:30;;;;;;;11.13;7.20;;;3.00;81.10;;;-151.14;100.00;62537.16;4038931;34;20001;-91
2021/12/07 06:39:57;;;;;;;12.65;7.72;;;3.00;81.00;;;-151.14;100.00;62537.16;4054595;34;20037;-91
2021/12/07 06:42:23;;;;;;;10.70;6.80;;;3.00;81.00;;;-151.14;100.00;62537.16;4077114;34;20112;-92
2021/12/07 06:44:49;;;;;;;10.70;6.90;;;3.00;81.00;;;-151.14;100.00;62537.16;4058779;34;20001;-90
2021/12/07 06:47:16;;;;;;;8.80;5.82;;;3.00;81.00;;;-151.14;100.00;62537.16;4059421;34;20124;-92
2021/12/07 06:49:42;;;;;;;9.70;5.53;;;3.00;81.10;;;-151.14;100.00;62537.16;4059218;34;20068;-91
2021/12/07 06:52:09;;;;;;;9.82;6.65;;;3.00;81.00;;;-151.14;100.00;62537.16;4059064;34;20016;-90
2021/12/07 06:54:36;;;;;;;9.10;6.55;;;3.00;81.00;;;-151.14;100.00;62537.16;4059175;34;20032;-90
2021/12/07 06:57:04;;;;;;;9.98;6.40;;;3.00;81.80;;;-151.14;100.00;62537.16;4037623;34;20073;-90
2021/12/07 06:59:31;;;;;;;9.30;6.70;;;3.00;81.00;;;-151.14;100.00;62537.16;4059531;34;19992;-91
2021/12/07 07:01:58;;;;;;;8.65;6.22;;;3.00;81.00;;;-151.14;100.00;62537.16;4081387;34;20354;-91
2021/12/07 07:04:24;;;;;;;10.20;6.50;;;3.00;80.90;;;-151.14;100.00;62537.16;4059480;34;20069;-91
2021/12/07 07:06:51;;;;;;;9.82;5.57;;;3.00;81.00;;;-151.14;100.00;62537.16;4038055;34;20051;-91
2021/12/07 07:09:17;;;;;;;11.07;7.03;;;3.00;80.90;;;-151.14;100.00;62537.16;4037785;34;19989;-92
2021/12/07 07:11:44;;;;;;;9.27;5.90;;;3.00;81.00;;;-151.14;100.00;62537.16;4059345;34;20033;-92
2021/12/07 07:14:10;;;;;;;9.35;6.45;;;3.00;81.00;;;-151.14;100.00;62537.16;4059539;34;20409;-90
2021/12/07 07:16:37;;;;;;;11.10;6.60;;;3.00;81.00;;;-151.14;100.00;62537.16;4058909;34;20005;-91
2021/12/07 07:19:03;;;;;;;8.77;6.22;;;3.00;81.00;;;-151.14;100.00;62537.16;4056356;34;20086;-91
2021/12/07 07:22:17;;;;;;;10.18;6.43;;;3.00;81.00;;;-151.14;100.00;62537.16;4058579;34;20430;-91
2021/12/07 07:24:45;;;;;;;9.65;6.28;;;3.00;80.90;;;-151.14;100.00;62537.16;4037883;34;20056;-92
2021/12/07 07:28:42;;;;;;;8.40;5.85;;;3.00;80.90;;;-151.14;100.00;62537.16;4058588;34;19992;-92
2021/12/07 07:36:59;;;;;;;8.60;5.82;;;3.00;80.90;;;-151.14;100.00;62537.16;4080402;34;20318;-93
2021/12/07 07:39:41;;;;;;;;;;;;;;;;;;;;;
2021/12/07 07:42:22;;;;;;;9.20;6.07;;;3.00;80.90;;;-151.14;100.00;62537.16;4062807;34;19982;-92
2021/12/07 07:45:31;;;;;;;9.02;5.55;;;3.00;80.90;;;-151.14;100.00;62537.16;4073996;34;20087;-91
2021/12/07 07:48:04;;;;;;;10.63;6.32;;;3.00;81.00;;;-151.14;100.00;62537.16;4093660;34;20009;-90
2021/12/07 07:50:31;;;;;;;10.63;6.45;;;3.00;81.00;;;-151.14;100.00;62537.16;4076544;34;20319;-91
2021/12/07 07:52:58;;;;;;;8.70;5.50;;;3.00;80.90;;;-151.14;100.00;62537.16;4045631;34;19989;-91
2021/12/07 07:55:25;;;;;;;8.85;5.75;;;3.00;81.00;;;-151.14;100.00;62537.16;4035532;34;19993;-91
2021/12/07 07:57:51;;;;;;;8.80;5.53;;;3.00;80.90;;;-151.14;100.00;62537.16;4015322;34;20024;-92
2021/12/07 08:00:18;;;;;;;10.85;6.43;;;3.00;80.90;;;-151.14;100.00;62537.16;4082738;34;20074;-90
2021/12/07 08:02:45;;;;;;;9.68;5.97;;;3.00;80.90;;;-151.14;100.00;62537.16;4082664;34;20098;-91
2021/12/07 08:05:12;;;;;;;8.57;6.07;;;3.00;80.90;;;-151.14;100.00;62537.16;4059225;34;19990;-91
2021/12/07 08:07:39;;;;;;;10.73;6.07;;;3.10;81.00;;;-151.14;100.00;62537.16;4050178;34;20031;-90
2021/12/07 08:10:08;;;;;;;9.13;5.85;;;3.10;81.00;;;-151.14;100.00;62537.16;4078751;34;20037;-90
2021/12/07 08:12:35;;;;;;;12.15;6.80;;;3.10;81.00;;;-151.14;100.00;62537.16;4104941;34;20004;-90
2021/12/07 08:15:03;;;;;;;8.07;5.45;;;3.10;81.00;;;-151.14;100.00;62537.16;4104831;34;20005;-91
2021/12/07 08:17:30;;;;;;;9.18;5.90;;;3.10;81.00;;;-151.14;100.00;62537.16;4082501;34;20016;-90
2021/12/07 08:19:57;;;;;;;8.38;5.82;;;3.10;81.00;;;-151.14;100.00;62537.16;4043598;34;19993;-90
2021/12/07 08:22:23;;;;;;;9.73;5.55;;;3.10;81.00;;;-151.14;100.00;62537.16;4056308;34;20439;-90
2021/12/07 08:24:50;;;;;;;8.52;5.18;;;3.10;80.90;;;-151.14;100.00;62537.16;4056404;34;20024;-91
2021/12/07 08:27:17;;;;;;;9.60;5.35;;;3.10;81.00;;;-151.14;100.00;62537.16;4014816;34;20005;-91
2021/12/07 08:29:43;;;;;;;9.68;6.00;;;3.10;80.90;;;-151.14;100.00;62537.16;4031183;34;19994;-91
2021/12/07 08:32:09;;;;;;;7.90;5.03;;;3.10;81.00;;;-151.14;100.00;62537.16;4031103;34;20009;-91
2021/12/07 08:34:36;;;;;;;8.07;4.97;;;3.10;80.90;;;-151.14;100.00;62537.16;4031335;34;19998;-90
2021/12/07 08:37:03;;;;;;;8.95;4.82;;;3.10;80.90;;;-151.14;100.00;62537.16;4030838;34;19982;-90
2021/12/07 08:39:29;;;;;;;8.73;5.63;;;3.10;81.10;;;-151.14;100.00;62537.16;4031695;34;19998;-89
2021/12/07 08:41:55;;;;;;;9.10;5.57;;;3.10;81.00;;;-151.14;100.00;62537.16;4052592;34;20320;-91
2021/12/07 08:44:22;;;;;;;8.40;5.47;;;3.10;80.90;;;-151.14;100.00;62537.16;4030936;35;20109;-91
2021/12/07 08:46:48;;;;;;;9.38;5.28;;;3.10;80.90;;;-151.14;100.00;62537.16;4051925;35;20009;-91
2021/12/07 08:49:15;;;;;;;7.90;5.07;;;3.10;80.90;;;-151.14;100.00;62537.16;4052934;35;20049;-91
2021/12/07 08:51:43;;;;;;;8.50;5.20;;;3.10;81.00;;;-151.14;100.00;62537.16;4052234;35;20102;-89
2021/12/07 08:59:45;;;;;;;8.38;4.57;;;3.10;81.10;;;-151.14;100.00;62537.16;4041750;34;19994;-90
2021/12/07 09:02:21;;;;;;;7.43;4.43;;;3.10;81.00;;;-151.14;100.00;62537.16;4058791;34;20388;-90
2021/12/07 09:04:48;;;;;;;;;;;3.10;80.90;;;-151.14;100.00;62537.16;4056880;34;20432;-90
2021/12/07 09:07:15;;;;;;;8.77;4.78;;;3.10;81.00;;;-151.14;100.00;62537.16;4077556;34;20400;-91
2021/12/07 09:09:45;;;;;;;7.07;4.72;;;3.10;81.00;;;-151.14;100.00;62537.16;4035713;34;19993;-91
2021/12/07 09:12:13;;;;;;;6.25;4.10;;;3.10;81.10;;;-151.14;100.00;62537.16;4079258;34;19994;-91
2021/12/07 09:14:41;;;;;;;6.63;4.45;;;3.10;81.00;;;-151.14;100.00;62537.16;4056812;34;20005;-91
2021/12/07 09:17:08;;;;;;;7.68;5.13;;;3.10;81.00;;;-151.14;100.00;62537.16;4079430;34;19997;-91
2021/12/07 09:19:35;;;;;;;6.65;4.40;;;3.10;81.00;;;-151.14;100.00;62537.16;4078145;34;20080;-90
2021/12/07 09:22:02;;;;;;;7.78;4.40;;;3.10;80.90;;;-151.14;100.00;62537.16;4081866;34;19988;-90
2021/12/07 09:24:28;;;;;;;7.07;4.45;;;3.10;81.10;;;-151.14;100.00;62537.16;4082463;34;19992;-90
2021/12/07 09:26:54;;;;;;;7.55;4.40;;;3.10;81.00;;;-151.14;100.00;62537.16;4082155;34;20092;-90
2021/12/07 09:29:21;;;;;;;6.60;3.60;;;3.10;81.00;;;-151.14;100.00;62537.16;4082480;34;20079;-91
2021/12/07 09:31:48;;;;;;;7.72;5.00;;;3.10;81.10;;;-151.14;100.00;62537.16;4056812;34;20367;-91
2021/12/07 09:34:14;;;;;;;5.63;4.15;;;3.10;81.00;;;-151.14;100.00;62537.16;4056874;34;20298;-91
2021/12/07 09:36:42;;;;;;;7.40;4.40;;;3.10;81.00;;;-151.14;100.00;62537.16;4056915;34;20001;-91
2021/12/07 09:39:13;;;;;;;6.22;3.67;;;3.10;81.00;;;-151.14;100.00;62537.16;4058779;34;19995;-90
2021/12/07 09:41:40;;;;;;;6.38;4.07;;;3.10;81.00;;;-151.14;100.00;62537.16;4059189;34;20427;-91
2021/12/07 09:44:07;;;;;;;7.22;4.28;;;3.10;81.00;;;-151.14;100.00;62537.16;4037147;34;20293;-91
2021/12/07 09:46:34;;;;;;;7.85;4.07;;;3.10;81.00;;;-151.14;100.00;62537.16;4036641;34;20104;-91
2021/12/07 09:49:02;;;;;;;5.82;3.90;;;3.10;81.00;;;-151.14;100.00;62537.16;4037157;34;19993;-91
2021/12/07 09:51:28;;;;;;;6.30;3.80;;;3.10;80.90;;;-151.14;100.00;62537.16;4037073;34;20279;-91
2021/12/07 09:53:55;;;;;;;7.30;4.32;;;3.10;81.00;;;-151.14;100.00;62537.16;4058544;34;20041;-89
2021/12/07 09:56:23;;;;;;;6.50;3.65;;;3.10;81.00;;;-151.14;100.00;62537.16;4058044;34;20085;-91
2021/12/07 09:58:50;;;;;;;6.15;3.58;;;3.10;80.90;;;-151.14;100.00;62537.16;4058260;34;20088;-90
2021/12/07 10:01:17;;;;;;;6.05;3.92;;;3.10;81.00;;;-151.14;100.00;62537.16;4058637;34;19997;-91
2021/12/07 10:03:44;;;;;;;5.80;4.15;;;3.10;81.00;;;-151.14;100.00;62537.16;4058422;34;20441;-90
2021/12/07 10:06:10;;;;;;;6.63;4.05;;;3.10;81.00;;;-151.14;100.00;62537.16;4051249;34;20281;-90
2021/12/07 10:08:38;;;;;;;5.28;2.80;;;3.10;81.00;;;-151.14;100.00;62537.16;4079948;34;20036;-91
2021/12/07 10:11:06;;;;;;;6.32;3.95;;;3.10;81.00;;;-151.14;100.00;62537.16;4037016;34;20272;-91
2021/12/07 10:13:33;;;;;;;6.47;3.95;;;3.10;80.90;;;-151.14;100.00;62537.16;4037247;34;20324;-91
2021/12/07 10:16:03;;;;;;;5.88;3.90;;;3.10;81.00;;;-151.14;100.00;62537.16;4058273;34;20332;-90
2021/12/07 10:18:33;;;;;;;4.68;3.00;;;3.10;81.00;;;-151.14;100.00;62537.16;4036932;34;20303;-91
2021/12/07 10:21:30;;;;;;;5.40;3.08;;;3.10;81.00;;;-151.14;100.00;62537.16;4058756;34;19998;-91
2021/12/07 10:24:06;;;;;;;4.60;2.65;;;3.10;80.90;;;-151.14;100.00;62537.16;4062816;34;20343;-91
2021/12/07 10:26:40;;;;;;;5.80;3.42;;;3.10;81.00;;;-151.14;100.00;62537.16;4059325;34;20121;-90
2021/12/07 10:29:17;;;;;;;5.18;3.53;;;3.10;81.00;;;-151.14;100.00;62537.16;4058576;34;20248;-91
2021/12/07 10:31:49;;;;;;;7.45;3.33;;;3.10;81.00;;;-151.14;100.00;62537.16;4089164;34;20100;-91
2021/12/07 10:34:25;;;;;;;6.55;3.40;;;3.10;81.10;;;-151.14;100.00;62537.16;4037559;34;20012;-90
2021/12/07 10:37:11;;;;;;;5.93;3.85;;;3.10;81.00;;;-151.14;100.00;62537.16;4036968;34;19998;-91
2021/12/07 10:39:51;;;;;;;6.32;3.05;;;3.10;81.00;;;-151.14;100.00;62537.16;4060921;34;20232;-91
2021/12/07 10:42:24;;;;;;;4.32;2.88;;;3.10;81.00;;;-151.14;100.00;62537.16;4082655;34;20048;-91
2021/12/07 10:44:50;;;;;;;4.38;2.60;;;3.20;80.90;;;-151.14;100.00;62537.16;4058227;34;20018;-92
2021/12/07 10:47:19;;;;;;;4.53;2.80;;;3.20;81.00;;;-151.14;100.00;62537.16;4036054;34;20168;-92
2021/12/07 10:50:15;;;;;;;5.47;3.00;;;3.20;81.00;;;-151.14;100.00;62537.16;4036868;34;20123;-91
2021/12/07 10:52:48;;;;;;;5.10;3.10;;;3.20;81.00;;;-151.14;100.00;62537.16;4040332;34;20143;-92
2021/12/07 10:55:25;;;;;;;4.22;2.60;;;3.20;81.10;;;-151.14;100.00;62537.16;4057778;34;20084;-91
2021/12/07 10:59:54;;;;;;;;;;;;;;;;;;;;;
2021/12/07 11:04:29;;;;;;;5.10;3.28;;;3.20;81.10;;;-151.14;100.00;62537.16;3949231;36;20133;-92
2021/12/07 11:07:20;;;;;;;3.97;2.75;;;3.20;81.00;;;-151.14;100.00;62537.16;3872400;36;20020;-92
2021/12/07 11:10:20;;;;;;;5.72;3.17;;;3.20;81.00;;;-151.14;100.00;62537.16;3926774;35;20000;-91
2021/12/07 11:13:15;;;;;;;5.00;2.85;;;3.20;81.00;;;-151.14;100.00;62537.16;4055471;34;20005;-91
2021/12/07 11:16:12;;;;;;;4.00;2.40;;;3.20;81.00;;;-151.14;100.00;62537.16;4077699;34;20108;-91
2021/12/07 11:18:45;;;;;;;4.95;3.00;;;3.20;81.00;;;-151.14;100.00;62537.16;4008967;34;20034;-91
2021/12/07 11:21:15;;;;;;;4.57;3.03;;;3.10;81.00;;;-151.14;100.00;62537.16;4032388;34;20085;-91
2021/12/07 11:23:55;;;;;;;4.78;2.72;;;3.20;81.00;;;-151.14;100.00;62537.16;4031808;34;19998;-91
2021/12/07 11:31:50;;;;;;;4.32;2.50;;;3.20;81.00;;;-151.14;100.00;62537.16;4034315;34;20352;-92
2021/12/07 11:34:18;;;;;;;4.15;2.33;;;3.20;81.00;;;-151.14;100.00;62537.16;4052457;34;20037;-92
2021/12/07 11:36:53;;;;;;;4.20;2.28;;;3.20;81.10;;;-151.14;100.00;62537.16;4075650;34;20038;-90
2021/12/07 11:39:50;;;;;;;4.47;2.57;;;3.10;81.00;;;-151.14;100.00;62537.16;4078588;34;20116;-91
2021/12/07 11:42:31;;;;;;;3.97;2.30;;;3.20;81.10;;;-151.14;100.00;62537.16;4060960;34;20025;-90
2021/12/07 11:45:21;;;;;;;3.40;2.10;;;3.20;81.00;;;-151.14;100.00;62537.16;4058145;34;20052;-90
2021/12/07 11:47:55;;;;;;;3.47;2.10;;;3.20;81.10;;;-151.14;100.00;62537.16;4057866;34;20002;-91
2021/12/07 11:50:36;;;;;;;4.45;2.20;;;3.20;81.00;;;-151.14;100.00;62537.16;4058351;34;20033;-91
2021/12/07 11:53:15;;;;;;;3.10;1.65;;;3.20;81.00;;;-151.14;100.00;62537.16;4078812;34;20032;-89
2021/12/07 11:55:47;;;;;;;3.97;2.50;;;3.20;81.00;;;-151.14;100.00;62537.16;4058766;34;20080;-91
2021/12/07 11:58:14;;;;;;;3.30;1.80;;;3.20;81.10;;;-151.14;100.00;62537.16;4057378;34;20250;-91
2021/12/07 12:00:51;;;;;;;4.50;2.40;;;3.20;81.00;;;-151.14;100.00;62537.16;4035691;34;20005;-90
2021/12/07 12:03:19;;;;;;;4.05;2.38;;;3.20;80.90;;;-151.14;100.00;62537.16;4036797;34;20025;-91
2021/12/07 12:05:47;;;;;;;2.60;1.75;;;3.20;81.00;;;-151.14;100.00;62537.16;4036027;34;20024;-92
2021/12/07 12:08:14;;;;;;;2.97;1.80;;;3.20;81.00;;;-151.14;100.00;62537.16;4078111;34;20136;-92
2021/12/07 12:10:49;;;;;;;3.03;1.77;;;3.20;81.00;;;-151.14;100.00;62537.16;4057727;34;20033;-91